Kirkby-in-Furness, United Kingdom
Current Conditions -  °F | °C
As of 2:50 PM on Sunday 21 Dec 2014 (Local Time) from EGNH Reporting Station
Scattered Clouds Scattered Clouds  
Wind Chill: 50°   Ceiling: Unl
Heat Index: 50°   Visibility: 6mi
Dew Point: 48°   Wind: 29mph
Humidity: 94%   Direction: 230°SW
Pressure: 30"   Gusts: NA
Location:  54.23°N, 3.19°W
Report Text: EGNH 211450Z 23025KT 9999 SCT006 SCT022 10/09 Q1016
Loading
Personal Weather Stations






























Interactive Weather Map New forecast layout! Learn more

10-Day Weather Forecast

Advertisements
Track Severe Weather on mobile